createdAt,value
2023-03-26T00:02:24.724Z,4.88
2023-03-26T00:07:27.897Z,4.00
2023-03-26T00:12:31.945Z,8.60
2023-03-26T00:17:34.697Z,4.97
2023-03-26T00:22:37.581Z,4.25
2023-03-26T00:27:41.798Z,5.80
2023-03-26T00:32:44.615Z,7.68
2023-03-26T00:37:58.273Z,6.78
2023-03-26T00:43:02.521Z,9.07
2023-03-26T00:48:05.728Z,6.72
2023-03-26T00:53:11.993Z,9.13
2023-03-26T00:58:16.665Z,6.38
2023-03-26T01:03:26.926Z,4.15
2023-03-26T01:08:33.331Z,4.43
2023-03-26T01:13:39.347Z,6.18
2023-03-26T01:18:42.118Z,3.42
2023-03-26T01:23:48.985Z,8.85
2023-03-26T01:28:56.758Z,4.97
2023-03-26T01:34:03.754Z,7.63
2023-03-26T01:39:09.968Z,3.55
2023-03-26T01:44:19.262Z,6.20
2023-03-26T01:49:22.268Z,6.93
2023-03-26T01:54:29.659Z,6.80
2023-03-26T01:59:50.370Z,4.50
2023-03-26T02:04:56.962Z,6.30
2023-03-26T02:10:05.535Z,3.92
2023-03-26T02:15:11.437Z,7.25
2023-03-26T02:20:14.961Z,4.35
2023-03-26T02:25:19.528Z,3.90
2023-03-26T02:30:26.666Z,5.43
2023-03-26T02:35:32.489Z,6.80
2023-03-26T02:40:37.395Z,8.73
2023-03-26T02:45:42.919Z,5.95
2023-03-26T02:51:06.639Z,2.83
2023-03-26T02:56:33.923Z,5.65
2023-03-26T03:02:07.122Z,4.25
2023-03-26T03:07:14.316Z,5.78
2023-03-26T03:12:17.049Z,6.00
2023-03-26T03:17:21.761Z,8.77
2023-03-26T03:22:24.620Z,3.35
2023-03-26T03:27:27.382Z,5.07
2023-03-26T03:32:42.764Z,6.25
2023-03-26T03:37:46.194Z,3.25
2023-03-26T03:42:49.055Z,4.40
2023-03-26T03:48:02.882Z,3.65
2023-03-26T03:53:18.487Z,5.75
2023-03-26T03:58:28.013Z,4.15
2023-03-26T04:03:38.804Z,4.07
2023-03-26T04:08:47.293Z,4.40
2023-03-26T04:13:50.269Z,9.23
2023-03-26T04:19:10.703Z,3.95
2023-03-26T04:24:13.775Z,3.47
2023-03-26T04:29:44.038Z,4.72
2023-03-26T04:34:53.802Z,3.83
2023-03-26T04:40:00.458Z,4.57
2023-03-26T04:45:14.754Z,4.43
2023-03-26T04:50:22.455Z,4.75
2023-03-26T04:55:27.148Z,4.90
2023-03-26T05:00:39.172Z,3.75
2023-03-26T05:05:43.406Z,5.28
2023-03-26T05:10:46.475Z,3.42
2023-03-26T05:15:55.588Z,4.55
2023-03-26T05:21:11.137Z,4.25
2023-03-26T05:26:15.682Z,4.57
2023-03-26T05:31:21.086Z,6.10
2023-03-26T05:36:28.285Z,4.00
2023-03-26T05:41:44.023Z,3.85
2023-03-26T05:46:47.060Z,3.42
2023-03-26T05:51:57.803Z,6.93
2023-03-26T05:57:28.392Z,5.30
2023-03-26T06:03:00.760Z,4.90
2023-03-26T06:08:31.225Z,6.25
2023-03-26T06:13:33.932Z,3.72
2023-03-26T06:18:37.303Z,2.95
2023-03-26T06:24:00.789Z,4.63
2023-03-26T06:29:25.979Z,3.22
2023-03-26T06:34:54.704Z,3.05
2023-03-26T06:39:59.052Z,4.32
2023-03-26T06:45:20.442Z,4.40
2023-03-26T06:50:48.949Z,5.40
2023-03-26T06:56:22.284Z,5.53
2023-03-26T07:01:34.808Z,6.20
2023-03-26T07:06:55.943Z,5.38
2023-03-26T07:12:18.484Z,4.43
2023-03-26T07:17:39.914Z,6.88
2023-03-26T07:22:57.920Z,4.03
2023-03-26T07:28:16.963Z,4.55
2023-03-26T07:33:51.981Z,4.55
2023-03-26T07:39:32.201Z,3.45
2023-03-26T07:45:04.523Z,2.83
2023-03-26T07:50:19.830Z,6.18
2023-03-26T07:55:48.000Z,3.85
2023-03-26T08:01:23.101Z,2.55
2023-03-26T08:06:33.738Z,5.72
2023-03-26T08:11:59.539Z,3.70
2023-03-26T08:17:08.827Z,4.20
2023-03-26T08:22:16.732Z,2.83
2023-03-26T08:27:23.975Z,4.05
2023-03-26T08:32:28.713Z,3.72
2023-03-26T08:37:31.667Z,3.10
2023-03-26T08:43:23.532Z,3.55
2023-03-26T08:48:51.267Z,2.22
2023-03-26T08:54:06.521Z,3.58
2023-03-26T08:59:44.760Z,4.38
2023-03-26T09:05:41.123Z,4.35
2023-03-26T09:11:18.277Z,2.70
2023-03-26T09:17:02.430Z,3.97
2023-03-26T09:22:28.440Z,2.67
2023-03-26T09:27:41.737Z,3.40
2023-03-26T09:33:17.709Z,4.60
2023-03-26T09:38:38.272Z,3.50
2023-03-26T09:43:55.775Z,3.78
2023-03-26T09:49:11.784Z,6.40
2023-03-26T09:54:46.376Z,4.15
2023-03-26T10:00:10.814Z,5.13
2023-03-26T10:05:28.208Z,8.93
2023-03-26T10:10:37.026Z,13.50
2023-03-26T10:15:53.318Z,5.70
2023-03-26T10:21:01.093Z,4.78
2023-03-26T10:26:27.141Z,4.47
2023-03-26T10:31:44.785Z,5.50
2023-03-26T10:36:51.507Z,4.68
2023-03-26T10:42:00.526Z,3.47
2023-03-26T10:47:14.297Z,3.60
2023-03-26T10:52:20.820Z,3.47
2023-03-26T10:57:35.145Z,4.40
2023-03-26T11:02:41.655Z,4.00
2023-03-26T11:07:51.708Z,5.25
2023-03-26T11:12:57.001Z,5.53
2023-03-26T11:18:26.040Z,3.28
2023-03-26T11:23:36.007Z,6.50
2023-03-26T11:29:03.552Z,4.82
2023-03-26T11:34:15.699Z,5.40
2023-03-26T11:39:23.449Z,6.50
2023-03-26T11:44:28.771Z,5.85
2023-03-26T11:49:33.353Z,9.95
2023-03-26T11:54:36.925Z,7.93
2023-03-26T11:59:55.822Z,12.32
2023-03-26T12:05:17.861Z,8.98
2023-03-26T12:10:29.492Z,11.38
2023-03-26T12:15:32.664Z,8.50
2023-03-26T12:21:04.527Z,11.05
2023-03-26T12:26:15.904Z,15.00
2023-03-26T12:31:19.671Z,9.55
2023-03-26T12:36:26.602Z,14.05
2023-03-26T12:43:40.206Z,9.18
2023-03-26T12:47:57.132Z,11.98
2023-03-26T12:53:06.800Z,8.63
2023-03-26T12:58:23.604Z,10.52
2023-03-26T13:03:41.773Z,12.02
2023-03-26T13:09:26.321Z,14.30
2023-03-26T13:14:52.766Z,19.38
2023-03-26T13:20:01.938Z,10.43
2023-03-26T13:25:18.187Z,13.80
2023-03-26T13:30:31.118Z,12.95
2023-03-26T13:35:37.649Z,8.38
2023-03-26T13:40:47.898Z,15.45
2023-03-26T13:45:57.420Z,9.70
2023-03-26T13:51:04.887Z,12.07
2023-03-26T13:56:11.369Z,19.33
2023-03-26T14:01:17.482Z,19.98
2023-03-26T14:06:31.983Z,17.33
2023-03-26T14:11:43.599Z,16.10
2023-03-26T14:16:51.516Z,16.63
2023-03-26T14:22:18.833Z,15.43
2023-03-26T14:27:45.603Z,21.38
2023-03-26T14:33:03.203Z,17.70
2023-03-26T14:38:25.028Z,17.73
2023-03-26T14:43:57.080Z,16.20
2023-03-26T14:49:10.925Z,21.88
2023-03-26T14:54:15.862Z,18.55
2023-03-26T14:59:47.444Z,17.98
2023-03-26T15:05:19.464Z,16.20
2023-03-26T15:10:49.582Z,15.18
2023-03-26T15:16:38.154Z,17.63
2023-03-26T15:22:18.145Z,16.48
2023-03-26T15:27:51.963Z,16.73
2023-03-26T15:33:14.260Z,13.13
2023-03-26T15:38:57.118Z,16.02
2023-03-26T15:44:36.141Z,14.85
2023-03-26T15:49:52.161Z,16.17
2023-03-26T15:54:59.598Z,14.43
2023-03-26T16:00:22.768Z,12.63
2023-03-26T16:05:33.274Z,11.52
2023-03-26T16:10:40.875Z,10.75
2023-03-26T16:15:45.309Z,12.93
2023-03-26T16:20:50.940Z,9.63
2023-03-26T16:26:08.999Z,12.93
2023-03-26T16:31:38.839Z,11.63
2023-03-26T16:36:44.302Z,10.63
2023-03-26T16:42:06.114Z,11.07
2023-03-26T16:47:29.400Z,6.97
2023-03-26T16:52:42.813Z,4.47
2023-03-26T16:57:56.009Z,8.95
2023-03-26T17:03:12.923Z,8.18
2023-03-26T17:08:18.994Z,8.82
2023-03-26T17:13:45.893Z,8.85
2023-03-26T17:18:55.484Z,8.55
2023-03-26T17:24:15.592Z,8.18
2023-03-26T17:29:33.939Z,8.30
2023-03-26T17:34:56.540Z,8.43
2023-03-26T17:40:35.835Z,8.75
2023-03-26T17:45:39.343Z,7.82
2023-03-26T17:50:48.601Z,7.20
2023-03-26T17:55:52.156Z,9.18
2023-03-26T18:01:02.072Z,7.07
2023-03-26T18:06:12.076Z,7.88
2023-03-26T18:11:36.833Z,6.90
2023-03-26T18:16:42.242Z,7.40
2023-03-26T18:21:50.017Z,7.82
2023-03-26T18:26:56.014Z,8.02
2023-03-26T18:32:02.466Z,5.65
2023-03-26T18:37:18.150Z,7.65
2023-03-26T18:42:23.677Z,6.05
2023-03-26T18:47:29.233Z,5.13
2023-03-26T18:52:33.518Z,8.90
2023-03-26T18:57:36.486Z,7.25
2023-03-26T19:02:39.802Z,7.10
2023-03-26T19:07:45.790Z,5.10
2023-03-26T19:13:14.474Z,6.10
2023-03-26T19:18:18.639Z,6.82
2023-03-26T19:23:57.625Z,7.38
2023-03-26T19:29:00.739Z,7.15
2023-03-26T19:34:13.559Z,5.47
2023-03-26T19:39:46.167Z,6.45
2023-03-26T19:45:19.317Z,6.53
2023-03-26T19:50:26.484Z,6.40
2023-03-26T19:55:30.602Z,6.95
2023-03-26T20:00:33.902Z,6.03
2023-03-26T20:05:37.431Z,4.82
2023-03-26T20:10:41.657Z,6.72
2023-03-26T20:15:47.132Z,6.78
2023-03-26T20:20:50.630Z,6.38
2023-03-26T20:25:54.930Z,6.38
2023-03-26T20:30:58.062Z,5.75
2023-03-26T20:36:01.678Z,5.03
2023-03-26T20:41:06.155Z,8.50
2023-03-26T20:46:12.301Z,5.68
2023-03-26T20:51:15.562Z,7.93
2023-03-26T20:56:21.800Z,7.00
2023-03-26T21:01:24.992Z,13.00
2023-03-26T21:06:27.759Z,8.30
2023-03-26T21:11:46.756Z,5.45
2023-03-26T21:16:50.044Z,9.73
2023-03-26T21:21:59.072Z,6.78
2023-03-26T21:27:09.970Z,11.65
2023-03-26T21:32:14.297Z,31.00
2023-03-26T21:37:18.827Z,27.30
2023-03-26T21:48:30.018Z,37.58
2023-03-26T21:53:33.174Z,36.42
2023-03-26T21:58:45.941Z,33.38
2023-03-26T22:03:56.826Z,29.60
2023-03-26T22:09:00.491Z,27.00
2023-03-26T22:14:03.211Z,24.15
2023-03-26T22:19:07.369Z,22.15
2023-03-26T22:25:02.897Z,21.23
2023-03-26T22:30:06.486Z,19.45
2023-03-26T22:35:20.573Z,16.40
2023-03-26T22:40:23.348Z,16.98
2023-03-26T22:45:26.141Z,16.65
2023-03-26T22:50:30.414Z,15.10
2023-03-26T22:55:33.147Z,14.57
2023-03-26T23:00:36.173Z,12.02
2023-03-26T23:05:40.276Z,10.57
2023-03-26T23:10:43.907Z,10.25
2023-03-26T23:15:49.619Z,11.60
2023-03-26T23:20:55.371Z,9.98
2023-03-26T23:25:59.766Z,7.55
2023-03-26T23:31:04.250Z,7.85
2023-03-26T23:36:09.721Z,9.65
2023-03-26T23:41:15.267Z,13.40
2023-03-26T23:46:22.029Z,10.93
2023-03-26T23:51:26.294Z,11.13
2023-03-26T23:56:29.678Z,8.52
